AirNav   Air Wisconsin pilot careers
 
 1038 users online  

52U Weatherby USFS Airport
Atlanta, Idaho, USA


FAA INFORMATION EFFECTIVE 04 JANUARY 2018

Location

FAA Identifier: 52U
Lat/Long: 43-49-30.5000N / 115-19-52.9000W
43-49.508333N / 115-19.881667W
43.8251389 / -115.3313611
(estimated)
Elevation: 4503 ft. / 1372.5 m (surveyed)
Variation: 17E (1985)
From city: 9 miles NW of ATLANTA, ID
Time zone: UTC -7 (UTC -6 during Daylight Saving Time)
Zip code: 83622

Airport Operations

Airport use: Open to the public
Control tower: no
ARTCC: SALT LAKE CITY CENTER
FSS: BOISE FLIGHT SERVICE STATION
NOTAMs facility: BOI (NOTAM-D service available)
Attendance: UNATNDD
Wind indicator: yes
Segmented circle: no

Airport Communications

CTAF: 122.9

Airport Services

Parking: tiedowns
Airframe service: NONE
Powerplant service: NONE
Bottled oxygen: NONE
Bulk oxygen: NONE

Runway Information

Runway 3/21

Dimensions: 2200 x 60 ft. / 671 x 18 m
Surface: turf/dirt, in fair condition
Runway edge markings: RY 03/21 THRS & EDGES MKD WITH PAINTED ROCKS.
RUNWAY 3  RUNWAY 21
Latitude: 43-49.398030N43-49.619962N
Longitude: 115-20.079173W115-19.683798W
Elevation: 4494.0 ft.4503.0 ft.
Gradient: 0.4% UP0.4%
Traffic pattern: leftleft
Runway heading: 035 magnetic, 052 true215 magnetic, 232 true
Obstructions: 125 ft. tree, 87 ft. left of centerline
+60 FT TREES IN APCH 80-125 FT L & 25-500 FT FM END OF RY; +18 FT ROAD AT 0 FT 105 FT L.
75 ft. tree, 5 ft. from runway, 75 ft. left of centerline
+30 FT TREES AT 50 FT 80 FT LEFT; +17 FT ROAD 0 FT 120 FEET RIGHT; +40 FT TREES AT 350 ON CNTRLN; 30 FT TREES AT 250 FT 50 FT RIGHT; 1000 FT TIMBERED RIDGE AT 3500 FT ON CNTRLN.

Airport Ownership and Management from official FAA records

Ownership: Publicly-owned
Owner: US FOREST SERVICE
324 25TH ST
OGDEN, UT 84401
Phone 801-625-5511
Manager: IDAHO CITY RANGER DISTRICT
3833 HIGHWAY 21, PO BOX 129
IDAHO CITY, ID 83631
Phone 208 392 6681

Airport Operational Statistics

Aircraft operations: avg 62/month *
100% transient general aviation
* for 12-month period ending 13 June 2016

Additional Remarks

RECOMMEND LNDG RWY 03; TKOF RWY 21 WHEN WIND CONDITIONS ALLOW.
ARPT LCTD IN NRW RIVER CANYON SUBJECT TO LCL TURBC CAUSED BY THE TRRN CONFIGN.
NO WINTER MAINTENANCE.
-2' DITCHES PARALLEL TO BOTH SIDES OF RWY.
NO TELEPHONE AVBL AT ARPT.

Instrument Procedures

There are no published instrument procedures at 52U.

Some nearby airports with instrument procedures:

KBOI - Boise Air Terminal/Gowen Field (42 nm W)
U76 - Mountain Home Municipal Airport (45 nm SW)
KSUN - Friedman Memorial Airport (49 nm SE)
KMUO - Mountain Home Air Force Base (52 nm SW)
KMAN - Nampa Municipal Airport (54 nm W)
 
Loc | Ops | Rwys | IFR | FBO | Links
Com | Nav | Svcs | Stats | Notes


 
Area around 52U (Weatherby USFS Airport)
 
Road maps at: MapQuest Bing Google
 
Aerial photo
WARNING: Photo may not be current or correct
Aerial photo of 52U (Weatherby USFS Airport)
Do you have a better or more recent aerial photo of Weatherby USFS Airport that you would like to share? If so, please send us your photo.

 
Sectional chart

 
Airport distance calculator
Flying to Weatherby USFS Airport? Find the distance to fly.

From to 52U

Sunrise and sunset
Times for 20-Jan-2018
 Local
(UTC-7)
 Zulu
(UTC)
Morning civil twilight07:3914:39
Sunrise08:1015:10
Sunset17:3500:35
Evening civil twilight18:0601:06

Current date and time
Zulu (UTC)  20-Jan-2018 19:15:00
Local (UTC-7)  20-Jan-2018 12:15:00
 
METAR
KSNT 
27nm NE 
201851Z AUTO 00000KT M06/M10 A2998 RMK AO1 SLP175 T10611100
KBOI 
42nm W 
201853Z 30009KT 10SM CLR 03/M03 A3007 RMK AO2 SLP198 T00331028
U76 
45nm SW 
SuperAWOS
201755Z AUTO 29012G17KT 10SM 02/M04 A3000
KSUN 
49nm SE 
201855Z 31009KT 10SM SKC M01/M12 A2996
TAF
KBOI 
42nm W 
201720Z 2018/2118 31005KT P6SM SCT050 FM210900 11004KT P6SM BKN250
KSUN 
49nm SE 
201720Z 2018/2124 13008KT P6SM SCT120 FM202200 23012KT P6SM SCT150 FM210000 31008KT P6SM SKC FM211600 16009KT P6SM SCT150
NOTAMs
Click for the latest NOTAMs
NOTAMs are issued by the DoD/FAA and will open in a separate window not controlled by AirNav.

 

 
 

Would you like to see your business listed on this page?

 If your business provides an interesting product or service to pilots, flight crews, aircraft, or users of the Weatherby USFS Airport, you should consider listing it here.  To start the listing process, click on the button below
 
Add a business
 

Other Pages about Weatherby USFS Airport

Update a link
 
Copyright © AirNav, LLC. All rights reserved. Privacy Policy  Contact